Terminal Aerodrome Forecast
Issued by NWS

Home | Current Version | Previous Version | Text Only | Print | Product List | Glossary On
Versions: 1 2 3 4 5 6 7 8 9 10 11 12 13 14 15 16 17 18 19 20 21 22 23 24 25 26 27 28 29 30 31 32 33 34 35
000
FTUS41 KRNK 012340
TAFLWB
TAF
KLWB 012340Z 0200/0224 22003KT P6SM SCT025 BKN040
      TEMPO 0200/0203 4SM -SHRA OVC025
     FM020300 00000KT 3SM -SHRA BR SCT003 OVC015
     FM020900 00000KT 1/2SM FG OVC005
     FM021500 00000KT 6SM HZ OVC025=

USA.gov is the U.S. government's official web portal to all federal, state and local government web resources and services.